Chignik, AK

11:43 AM AKDT on July 27, 2016 (GMT -0800)
Chignik

Weather History for PAJC - January, 2012

Change the Weather History Date:

Sunday, January 22, 2012

  Actual Average Record
Temperature  
Mean Temperature 8 °F -  
Max Temperature 12 °F 32 °F 44 °F (1999)
Min Temperature 5 °F 26 °F 5 °F (2012)
Degree Days  
Heating Degree Days 56    
Moisture  
Dew Point -1 °F    
Average Humidity 67    
Maximum Humidity 85    
Minimum Humidity 48    
Precipitation  
Precipitation 0.00 in - - ()
Sea Level Pressure  
Sea Level Pressure 28.88 in    
Wind  
Wind Speed 18 mph (West)    
Max Wind Speed 26 mph    
Max Gust Speed 36 mph    
Visibility 6 miles    
Events      
Averages and records for this station are not official NWS values.
T = Trace of Precipitation, MM = Missing Value Source: NWS Daily Summary

Daily Weather History Graph

Daily Weather History Graph

Search for Another Location

Airport or City:

Trip Planner

Search our weather history database for the weather conditions in past years. The results will help you decide how hot, cold, wet, or windy it might be!

Date:

Astronomy

Jan. 22, 2012 Rise Set
Actual Time 9:47 AM AKST 5:43 PM AKST
Civil Twilight 9:03 AM AKST 6:27 PM AKST
Nautical Twilight 8:16 AM AKST 7:13 PM AKST
Astronomical Twilight 7:32 AM AKST 7:58 PM AKST
Moon 9:08 AM AKST (1/22) 5:44 PM AKST (1/22)
Length of Visible Light 9h 23m
Length of Day
7h 56m
Waning Crescent, 0% of the Moon is Illuminated
Jan 22
Waning Crescent
Jan 22
New
Jan 30
First Quarter
Feb 7
Full
Feb 14
Last Quarter

Hourly Weather History & Observations

Time (AKST) Temp. Windchill Dew Point Humidity Pressure Visibility Wind Dir Wind Speed Gust Speed Precip Events Conditions
12:16 AM 12.2 °F -4.3 °F 5.0 °F 73% 28.87 in 9.0 mi SW 16.1 mph 33.4 mph N/A   Mostly Cloudy
12:36 AM 12.2 °F -7.9 °F 3.2 °F 67% 28.87 in 5.0 mi SW 25.3 mph 32.2 mph N/A   Overcast
12:56 AM 12.2 °F -6.7 °F 5.0 °F 73% 28.87 in 7.0 mi SW 21.9 mph 31.1 mph N/A   Overcast
1:16 AM 12.2 °F -7.1 °F 6.8 °F 79% 28.87 in 3.0 mi SW 23.0 mph 28.8 mph N/A   Overcast
1:36 AM 12.2 °F -8.2 °F 6.8 °F 79% 28.86 in 3.0 mi WSW 26.5 mph 35.7 mph N/A   Overcast
1:56 AM 12.2 °F -7.1 °F 3.2 °F 67% 28.87 in 3.0 mi SW 23.0 mph 31.1 mph N/A   Overcast
2:16 AM 10.4 °F -8.2 °F 6.8 °F 85% 28.86 in 1.8 mi SW 19.6 mph 27.6 mph N/A   Overcast
2:36 AM 10.4 °F -7.2 °F 5.0 °F 79% 28.86 in 1.8 mi WSW 17.3 mph 26.5 mph N/A   Overcast
2:56 AM 10.4 °F -4.8 °F 5.0 °F 79% 28.87 in 1.8 mi WSW 12.7 mph 20.7 mph N/A   Overcast
3:16 AM 10.4 °F -6.0 °F 5.0 °F 79% 28.86 in 2.0 mi WSW 15.0 mph 19.6 mph N/A   Overcast
3:36 AM 10.4 °F -7.7 °F 3.2 °F 73% 28.87 in 3.0 mi WSW 18.4 mph 29.9 mph N/A   Overcast
3:56 AM 10.4 °F -7.7 °F 3.2 °F 73% 28.86 in 5.0 mi WSW 18.4 mph 27.6 mph N/A   Overcast
4:16 AM 10.4 °F -7.7 °F 1.4 °F 67% 28.86 in 8.0 mi SW 18.4 mph 25.3 mph N/A   Overcast
4:36 AM 10.4 °F -7.7 °F 3.2 °F 73% 28.86 in 7.0 mi WSW 18.4 mph 26.5 mph N/A   Overcast
4:56 AM 10.4 °F -8.2 °F 1.4 °F 67% 28.85 in 8.0 mi WSW 19.6 mph 28.8 mph N/A   Overcast
5:16 AM 10.4 °F -6.6 °F 1.4 °F 67% 28.86 in 5.0 mi WSW 16.1 mph 31.1 mph N/A   Overcast
5:36 AM 10.4 °F -8.6 °F 1.4 °F 67% 28.85 in 5.0 mi WSW 20.7 mph 28.8 mph N/A   Overcast
5:56 AM 10.4 °F -9.9 °F 1.4 °F 67% 28.85 in 3.0 mi SW 24.2 mph 35.7 mph N/A   Overcast
6:16 AM 10.4 °F -10.3 °F 1.4 °F 67% 28.85 in 3.0 mi WSW 25.3 mph 31.1 mph N/A   Overcast
6:36 AM 10.4 °F -9.5 °F 1.4 °F 67% 28.85 in 5.0 mi WSW 23.0 mph 29.9 mph N/A   Overcast
6:56 AM 8.6 °F -10.0 °F 1.4 °F 73% 28.86 in 5.0 mi SW 18.4 mph 28.8 mph N/A   Overcast
7:16 AM 8.6 °F -7.0 °F 1.4 °F 73% 28.85 in 3.0 mi West 12.7 mph 24.2 mph N/A   Overcast
7:36 AM 8.6 °F -10.0 °F -0.4 °F 67% 28.85 in 5.0 mi WSW 18.4 mph 29.9 mph N/A   Overcast
7:56 AM 8.6 °F -11.4 °F -0.4 °F 67% 28.85 in 4.0 mi West 21.9 mph 33.4 mph N/A   Overcast
8:16 AM 8.6 °F -9.5 °F 1.4 °F 73% 28.85 in 2.0 mi WSW 17.3 mph 29.9 mph N/A   Overcast
8:36 AM 8.6 °F -10.0 °F -0.4 °F 67% 28.85 in 2.0 mi SW 18.4 mph 34.5 mph N/A   Overcast
8:56 AM 8.6 °F -7.0 °F -0.4 °F 67% 28.86 in 2.5 mi WSW 12.7 mph 31.1 mph N/A   Overcast
9:16 AM 8.6 °F -12.3 °F -0.4 °F 67% 28.86 in 5.0 mi WSW 24.2 mph 32.2 mph N/A   Overcast
9:36 AM 6.8 °F -13.4 °F -2.2 °F 67% 28.87 in 7.0 mi West 20.7 mph 28.8 mph N/A   Overcast
9:56 AM 6.8 °F -14.3 °F -0.4 °F 72% 28.87 in 2.5 mi West 23.0 mph 34.5 mph N/A   Overcast
10:16 AM 6.8 °F -13.4 °F -0.4 °F 72% 28.88 in 1.2 mi WSW 20.7 mph 32.2 mph N/A   Overcast
10:36 AM 6.8 °F -14.3 °F -0.4 °F 72% 28.88 in 1.2 mi West 23.0 mph 29.9 mph N/A   Overcast
10:56 AM 6.8 °F -12.9 °F -0.4 °F 72% 28.88 in 1.5 mi WSW 19.6 mph 28.8 mph N/A   Overcast
11:16 AM 6.8 °F -10.0 °F 1.4 °F 79% 28.89 in 1.5 mi NNW 13.8 mph 27.6 mph N/A   Overcast
11:36 AM 6.8 °F -10.7 °F -0.4 °F 72% 28.89 in 1.8 mi North 15.0 mph 21.9 mph N/A   Overcast
11:56 AM 6.8 °F -11.8 °F 1.4 °F 79% 28.89 in 4.0 mi North 17.3 mph 21.9 mph N/A   Overcast
12:16 PM 6.8 °F -10.0 °F -2.2 °F 67% 28.90 in 7.0 mi WNW 13.8 mph 27.6 mph N/A   Overcast
12:36 PM 6.8 °F -7.8 °F -2.2 °F 67% 28.90 in 8.0 mi NW 10.4 mph 16.1 mph N/A   Overcast
12:56 PM 6.8 °F -12.4 °F -0.4 °F 72% 28.89 in 10.0 mi West 18.4 mph 25.3 mph N/A   Overcast
1:16 PM 6.8 °F -11.8 °F -2.2 °F 67% 28.89 in 10.0 mi West 17.3 mph 26.5 mph N/A   Overcast
1:36 PM 6.8 °F -8.6 °F -2.2 °F 67% 28.90 in 10.0 mi West 11.5 mph 20.7 mph N/A   Overcast
1:56 PM 6.8 °F -7.8 °F -7.6 °F 52% 28.90 in 10.0 mi West 10.4 mph 17.3 mph N/A   Overcast
2:16 PM 6.8 °F -11.3 °F -0.4 °F 72% 28.90 in 10.0 mi WNW 16.1 mph 23.0 mph N/A   Overcast
2:36 PM 6.8 °F -11.8 °F -5.8 °F 56% 28.90 in 10.0 mi West 17.3 mph 24.2 mph N/A   Overcast
2:56 PM 6.8 °F -9.3 °F -7.6 °F 52% 28.90 in 10.0 mi WNW 12.7 mph 23.0 mph N/A   Mostly Cloudy
3:16 PM 6.8 °F -6.9 °F -9.4 °F 48% 28.90 in 10.0 mi NW 9.2 mph 18.4 mph N/A   Mostly Cloudy
3:36 PM 6.8 °F -9.3 °F -7.6 °F 52% 28.90 in 10.0 mi West 12.7 mph 20.7 mph N/A   Overcast
3:56 PM 5.0 °F -10.0 °F -7.6 °F 56% 28.90 in 10.0 mi West 10.4 mph - N/A   Mostly Cloudy
4:16 PM 6.8 °F -7.8 °F -7.6 °F 52% 28.90 in 10.0 mi NW 10.4 mph 17.3 mph N/A   Overcast
4:36 PM 6.8 °F -11.8 °F -7.6 °F 52% 28.90 in 10.0 mi North 17.3 mph - N/A   Overcast
4:56 PM 5.0 °F -10.8 °F -7.6 °F 56% 28.91 in 10.0 mi West 11.5 mph 17.3 mph N/A   Overcast
5:16 PM 5.0 °F -10.8 °F -7.6 °F 56% 28.91 in 10.0 mi North 11.5 mph 19.6 mph N/A   Mostly Cloudy
5:36 PM 5.0 °F -13.0 °F -5.8 °F 61% 28.91 in 10.0 mi WNW 15.0 mph 20.7 mph N/A   Partly Cloudy
5:56 PM 5.0 °F -14.7 °F -7.6 °F 56% 28.91 in 10.0 mi North 18.4 mph 26.5 mph N/A   Clear
6:16 PM 5.0 °F -11.6 °F -7.6 °F 56% 28.92 in 10.0 mi NW 12.7 mph 20.7 mph N/A   Mostly Cloudy
6:36 PM 5.0 °F -12.3 °F -9.4 °F 52% 28.92 in 10.0 mi NW 13.8 mph - N/A   Mostly Cloudy
6:56 PM 5.0 °F -13.0 °F -9.4 °F 52% 28.93 in 10.0 mi NW 15.0 mph 19.6 mph N/A   Mostly Cloudy
7:16 PM 3.2 °F -14.6 °F -7.6 °F 61% 28.93 in 10.0 mi NNW 13.8 mph 19.6 mph N/A   Partly Cloudy
7:36 PM 3.2 °F -13.9 °F -9.4 °F 56% 28.94 in 10.0 mi WNW 12.7 mph 18.4 mph N/A   Clear
7:56 PM 3.2 °F -14.6 °F -7.6 °F 61% 28.94 in 10.0 mi West 13.8 mph 23.0 mph N/A   Mostly Cloudy
8:16 PM 3.2 °F -11.3 °F -7.6 °F 61% 28.95 in 10.0 mi West 9.2 mph - N/A   Overcast
8:36 PM 3.2 °F -13.9 °F -9.4 °F 56% 28.95 in 10.0 mi WSW 12.7 mph 24.2 mph N/A   Overcast
8:56 PM 3.2 °F -14.6 °F -7.6 °F 61% 28.95 in 10.0 mi SW 13.8 mph 17.3 mph N/A   Overcast
9:16 PM 3.2 °F -11.3 °F -7.6 °F 61% 28.96 in 10.0 mi West 9.2 mph - N/A   Overcast
9:36 PM 3.2 °F -14.6 °F -5.8 °F 66% 28.96 in 10.0 mi West 13.8 mph 21.9 mph N/A   Overcast
9:56 PM 3.2 °F -14.6 °F -5.8 °F 66% 28.97 in 10.0 mi West 13.8 mph 21.9 mph N/A   Overcast
10:16 PM 3.2 °F -15.3 °F -5.8 °F 66% 28.97 in 10.0 mi NW 15.0 mph 21.9 mph N/A   Overcast
10:36 PM 3.2 °F -15.9 °F -4.0 °F 72% 28.97 in 10.0 mi West 16.1 mph 24.2 mph N/A   Overcast
10:56 PM 3.2 °F -16.5 °F -5.8 °F 66% 28.98 in 10.0 mi WSW 17.3 mph 24.2 mph N/A   Overcast
11:36 PM 3.2 °F -16.5 °F -4.0 °F 72% 28.99 in 10.0 mi WSW 17.3 mph 25.3 mph N/A   Overcast
11:56 PM 3.2 °F -15.3 °F -4.0 °F 72% 28.99 in 10.0 mi WSW 15.0 mph 20.7 mph N/A   Overcast